createdAt,value
2022-12-04T00:07:36.544Z,19.56
2022-12-04T00:22:52.386Z,19.59
2022-12-04T00:38:09.402Z,19.62
2022-12-04T00:53:25.328Z,19.63
2022-12-04T01:08:42.319Z,19.63
2022-12-04T01:23:56.265Z,19.65
2022-12-04T01:39:13.297Z,19.66
2022-12-04T01:54:29.239Z,19.66
2022-12-04T02:09:45.200Z,19.66
2022-12-04T02:25:02.125Z,19.65
2022-12-04T02:40:18.157Z,19.65
2022-12-04T02:55:35.076Z,19.64
2022-12-04T03:10:52.086Z,19.64
2022-12-04T03:26:09.016Z,19.62
2022-12-04T03:41:25.048Z,19.61
2022-12-04T03:56:40.956Z,19.59
2022-12-04T04:11:56.957Z,19.57
2022-12-04T04:27:13.940Z,19.56
2022-12-04T04:42:29.893Z,19.54
2022-12-04T04:57:46.886Z,19.53
2022-12-04T05:13:03.824Z,19.51
2022-12-04T05:28:20.804Z,19.49
2022-12-04T05:43:36.740Z,19.47
2022-12-04T05:58:52.746Z,19.46
2022-12-04T06:14:08.681Z,19.44
2022-12-04T06:29:25.644Z,19.41
2022-12-04T06:44:42.628Z,19.39
2022-12-04T06:59:59.597Z,19.38
2022-12-04T07:15:15.551Z,19.35
2022-12-04T07:30:32.524Z,19.34
2022-12-04T07:45:48.684Z,19.31
2022-12-04T08:01:04.543Z,19.3
2022-12-04T08:16:20.498Z,19.27
2022-12-04T08:31:38.471Z,19.24
2022-12-04T08:46:55.368Z,19.23
2022-12-04T09:02:12.329Z,19.22
2022-12-04T09:17:28.381Z,19.23
2022-12-04T09:32:45.276Z,19.25
2022-12-04T09:48:01.265Z,19.29
2022-12-04T10:03:17.396Z,19.31
2022-12-04T10:18:34.208Z,19.34
2022-12-04T10:33:52.186Z,19.36
2022-12-04T10:34:32.041Z,19.36
2022-12-04T10:49:09.168Z,19.38
2022-12-04T11:04:26.139Z,19.38
2022-12-04T11:19:43.120Z,19.41
2022-12-04T11:35:01.047Z,19.41
2022-12-04T11:50:18.041Z,19.43
2022-12-04T12:05:34.017Z,19.42
2022-12-04T12:20:49.981Z,19.41
2022-12-04T12:36:06.898Z,19.43
2022-12-04T12:51:30.723Z,19.41
2022-12-04T13:06:39.890Z,19.41
2022-12-04T13:21:56.853Z,19.4
2022-12-04T13:37:13.820Z,19.4
2022-12-04T13:52:30.747Z,19.4
2022-12-04T14:07:46.811Z,19.39
2022-12-04T14:23:02.708Z,19.39
2022-12-04T14:38:19.702Z,19.37
2022-12-04T14:53:35.633Z,19.36
2022-12-04T15:08:51.636Z,19.36
2022-12-04T15:24:08.587Z,19.34
2022-12-04T15:39:26.553Z,19.33
2022-12-04T15:54:43.508Z,19.3
2022-12-04T16:10:02.780Z,19.29
2022-12-04T16:25:15.447Z,19.29
2022-12-04T16:40:32.458Z,19.28
2022-12-04T16:55:48.384Z,19.25
2022-12-04T16:56:33.262Z,19.25
2022-12-04T17:11:02.411Z,19.23
2022-12-04T17:26:19.345Z,19.22
2022-12-04T17:41:36.333Z,19.21
2022-12-04T17:56:57.473Z,19.22
2022-12-04T18:12:08.233Z,19.25
2022-12-04T18:27:24.237Z,19.29
2022-12-04T18:42:41.191Z,19.33
2022-12-04T18:57:58.196Z,19.37
2022-12-04T19:13:15.110Z,19.4
2022-12-04T19:28:45.519Z,19.43
2022-12-04T19:43:49.052Z,19.45
2022-12-04T19:59:05.070Z,19.47
2022-12-04T20:14:20.978Z,19.49
2022-12-04T20:29:37.972Z,19.5
2022-12-04T20:44:53.961Z,19.51
2022-12-04T21:00:09.894Z,19.49
2022-12-04T21:15:26.866Z,19.5
2022-12-04T21:30:44.891Z,19.5
2022-12-04T21:46:07.447Z,19.5
2022-12-04T22:01:17.914Z,19.49
2022-12-04T22:16:38.308Z,19.48
2022-12-04T22:31:50.821Z,19.47
2022-12-04T22:47:06.797Z,19.45
2022-12-04T23:02:23.636Z,19.45
2022-12-04T23:17:40.665Z,19.43
2022-12-04T23:32:58.582Z,19.41
2022-12-04T23:48:14.578Z,19.41
